Savery, Wyoming
Current Conditions -  °F | °C
As of 10:35 PM on Tuesday 21 Oct 2014 (Local Time) from KDWX Reporting Station
Moderate Rain Moderate Rain  
Wind Chill: 41°   Ceiling: 3600
Heat Index: 46°   Visibility: 10mi
Dew Point: 42°   Wind: 8mph
Humidity: 87%   Direction: 160°SSE
Pressure: 30.16"   Gusts: NA
Location:  41.02°N, 107.45°W
Report Text: KDWX 220435Z AUTO 16007KT 10SM RA SCT027 OVC036 08/06 A3016 RMK AO2 T00750055
Loading
Personal Weather Stations






























Interactive Weather Map
Tropical Storm Tracking
New forecast layout! Learn more

10-Day Weather Forecast

Advertisements
Track Severe Weather on mobile